KSDF/SDF METAR and TAF weather

Enter ICAO airport designator
Station Type Date Time Source
KSDF METAR 2021/07/29 01:56 UTC NOAA

KSDF 290156Z 29004KT 10SM FEW300 28/22 A3002 RMK AO2 SLP159 T02830217


Station Type Date Time Source
KSDF Decoded METAR 2021/07/29 01:56 UTC NOAA

STANDIFORD FIELD, KY, United States (KSDF) 38-11N 085-44W 146M
Jul 28, 2021 - 09:56 PM EDT / 2021.07.29 0156 UTC
Wind: from the WNW (290 degrees) at 5 MPH (4 KT):0
Visibility: 10 mile(s):0
Sky conditions: mostly clear
Temperature: 82.9 F (28.3 C)
Dew Point: 71.1 F (21.7 C)
Relative Humidity: 67%
Pressure (altimeter): 30.02 in. Hg (1016 hPa)
ob: KSDF 290156Z 29004KT 10SM FEW300 28/22 A3002 RMK AO2 SLP159 T02830217
cycle: 2

Station Type Date Time Source
KSDF TAF 2021/07/28 18:22 UTC NOAA

TAF KSDF 281720Z 2818/2924 31004KT P6SM BKN250
FM290100 VRB03KT P6SM SCT250
FM291500 24007KT P6SM FEW045

Example: see airport list